Csl Argosy — C6UZ9 — position and weather

sailwx.info

Track history (hours):
 
Tides and Currents Weather Stations Pressure Air Temp Water Temp Dewpoint Dewpoint Depression Visibility Wind Speed Wind Dir Waves Ship Positions

Csl Argosy

Last reported at 2018-May-22 12:48 UTC. Time now 2018-May-23 18:46 UTC.
Position N 20°42' W 086°53'.

Length 244 m; draft 11.9 m.

Type: Cargo ship. MMSI: 308299000.

Date/timePositionNaut miles runAvg speedWind from/ knotsBaromVisibWave heightAir tempDewpointWater temp
2018-May-22 12:48N 20°42' W 086°53'412.8
2018-May-22 12:30N 20°40' W 086°56'612.6
2018-May-22 12:00N 20°37' W 087°02'510.8
2018-May-22 11:30N 20°34' W 087°07'1 1.1
2018-May-22 10:46N 20°34' W 087°08'0 0.0
2018-May-22 10:16N 20°34' W 087°08'0 0.0
2018-May-22 09:55N 20°34' W 087°08'0 0.0
2018-May-22 09:28N 20°34' W 087°08'0 0.0
2018-May-22 08:55N 20°34' W 087°08'0 0.0
2018-May-22 08:25N 20°34' W 087°08'0 0.0
2018-May-22 07:55N 20°34' W 087°08'0 0.0
2018-May-22 07:25N 20°34' W 087°08'0 0.0
2018-May-22 06:58N 20°34' W 087°08'0 0.0
2018-May-22 06:28N 20°34' W 087°08'0 0.0
2018-May-22 05:55N 20°34' W 087°08'0 0.0
2018-May-22 05:28N 20°34' W 087°08'0 0.0
2018-May-22 04:58N 20°34' W 087°08'0 0.0
2018-May-22 04:16N 20°34' W 087°08'0 0.0
2018-May-22 03:58N 20°34' W 087°08'0 0.0
2018-May-22 03:25N 20°34' W 087°08'0 0.0
2018-May-22 02:55N 20°34' W 087°08'0 0.0
2018-May-22 02:28N 20°34' W 087°08'0 0.0
2018-May-22 01:58N 20°34' W 087°08'0 0.0
2018-May-22 01:25N 20°34' W 087°08'0 0.0
2018-May-22 00:58N 20°34' W 087°08'0 0.0
2018-May-22 00:25N 20°34' W 087°08'0 0.0
2018-May-21 23:58N 20°34' W 087°08'0 0.0
2018-May-21 23:19N 20°34' W 087°08'0 0.0
2018-May-21 22:58N 20°34' W 087°08'0 0.0
2018-May-21 22:16N 20°34' W 087°08'0 0.0
2018-May-21 21:55N 20°34' W 087°08'0 0.0
2018-May-21 21:28N 20°34' W 087°08'0 0.0
2018-May-21 20:58N 20°34' W 087°08'0 0.0
2018-May-21 20:28N 20°34' W 087°08'0 0.0
2018-May-21 19:43N 20°34' W 087°08'0 0.0
2018-May-21 19:22N 20°34' W 087°08'0 0.0
2018-May-21 18:55N 20°34' W 087°08'0 0.0
2018-May-21 17:29N 20°34' W 087°08'0 0.0
2018-May-21 17:00N 20°34' W 087°08'0 0.0
2018-May-21 16:30N 20°34' W 087°08'0 0.7
2018-May-21 16:01N 20°34' W 087°07'2 3.9
2018-May-21 15:31N 20°35' W 087°06'2 3.5
2018-May-21 15:01N 20°36' W 087°04'3 6.7
2018-May-21 14:30N 20°37' W 087°01'611.1
2018-May-21 14:00N 20°40' W 086°56'  
2018-May-18 07:45N 27°51' W 097°31'0 0.0
2018-May-18 07:00N 27°51' W 097°31'0 0.0
2018-May-18 06:18N 27°51' W 097°31'0 0.0
2018-May-18 06:00N 27°51' W 097°31'0 0.0
2018-May-18 05:27N 27°51' W 097°31'0 0.0
2018-May-18 05:00N 27°51' W 097°31'0 0.0
2018-May-18 04:30N 27°51' W 097°31'0 0.0
2018-May-18 03:00N 27°51' W 097°31'0 0.0
2018-May-18 02:30N 27°51' W 097°31'0 0.0
2018-May-18 02:00N 27°51' W 097°31'0 0.0
2018-May-18 01:30N 27°51' W 097°31'0 0.0
2018-May-18 00:57N 27°51' W 097°31'0 0.0
2018-May-18 00:30N 27°51' W 097°31'23511.1
2018-May-17 03:21N 25°58' W 093°40'1112.4
2018-May-17 02:26N 25°52' W 093°29'512.1
2018-May-17 02:00N 25°49' W 093°24'712.2
2018-May-17 01:25N 25°45' W 093°18'512.1
2018-May-17 01:00N 25°42' W 093°14'612.0
2018-May-17 00:30N 25°39' W 093°08'812.1
2018-May-16 23:49N 25°34' W 093°01'512.1
2018-May-16 23:26N 25°31' W 092°57'612.3
2018-May-16 22:56N 25°27' W 092°51'912.6
2018-May-16 22:10N 25°22' W 092°43'42611.3
2018-May-15 08:26N 20°38' W 086°58'613.3
2018-May-15 08:00N 20°35' W 087°03'  
Track history (hours):
 
Tides and Currents Weather Stations Pressure Air Temp Water Temp Dewpoint Dewpoint Depression Visibility Wind Speed Wind Dir Waves Ship Positions

Csl Argosy

Last reported at 2018-May-22 12:48 UTC. Time now 2018-May-23 18:46 UTC.
Position N 20°42' W 086°53'.

Length 244 m; draft 11.9 m.

Type: Cargo ship. MMSI: 308299000.

Date/timePositionNaut miles runAvg speedWind from/ knotsBaromVisibWave heightAir tempDewpointWater temp
2018-May-22 12:48N 20°42' W 086°53'412.8
2018-May-22 12:30N 20°40' W 086°56'612.6
2018-May-22 12:00N 20°37' W 087°02'510.8
2018-May-22 11:30N 20°34' W 087°07'1 1.1
2018-May-22 10:46N 20°34' W 087°08'0 0.0
2018-May-22 10:16N 20°34' W 087°08'0 0.0
2018-May-22 09:55N 20°34' W 087°08'0 0.0
2018-May-22 09:28N 20°34' W 087°08'0 0.0
2018-May-22 08:55N 20°34' W 087°08'0 0.0
2018-May-22 08:25N 20°34' W 087°08'0 0.0
2018-May-22 07:55N 20°34' W 087°08'0 0.0
2018-May-22 07:25N 20°34' W 087°08'0 0.0
2018-May-22 06:58N 20°34' W 087°08'0 0.0
2018-May-22 06:28N 20°34' W 087°08'0 0.0
2018-May-22 05:55N 20°34' W 087°08'0 0.0
2018-May-22 05:28N 20°34' W 087°08'0 0.0
2018-May-22 04:58N 20°34' W 087°08'0 0.0
2018-May-22 04:16N 20°34' W 087°08'0 0.0
2018-May-22 03:58N 20°34' W 087°08'0 0.0
2018-May-22 03:25N 20°34' W 087°08'0 0.0
2018-May-22 02:55N 20°34' W 087°08'0 0.0
2018-May-22 02:28N 20°34' W 087°08'0 0.0
2018-May-22 01:58N 20°34' W 087°08'0 0.0
2018-May-22 01:25N 20°34' W 087°08'0 0.0
2018-May-22 00:58N 20°34' W 087°08'0 0.0
2018-May-22 00:25N 20°34' W 087°08'0 0.0
2018-May-21 23:58N 20°34' W 087°08'0 0.0
2018-May-21 23:19N 20°34' W 087°08'0 0.0
2018-May-21 22:58N 20°34' W 087°08'0 0.0
2018-May-21 22:16N 20°34' W 087°08'0 0.0
2018-May-21 21:55N 20°34' W 087°08'0 0.0
2018-May-21 21:28N 20°34' W 087°08'0 0.0
2018-May-21 20:58N 20°34' W 087°08'0 0.0
2018-May-21 20:28N 20°34' W 087°08'0 0.0
2018-May-21 19:43N 20°34' W 087°08'0 0.0
2018-May-21 19:22N 20°34' W 087°08'0 0.0
2018-May-21 18:55N 20°34' W 087°08'0 0.0
2018-May-21 17:29N 20°34' W 087°08'0 0.0
2018-May-21 17:00N 20°34' W 087°08'0 0.0
2018-May-21 16:30N 20°34' W 087°08'0 0.7
2018-May-21 16:01N 20°34' W 087°07'2 3.9
2018-May-21 15:31N 20°35' W 087°06'2 3.5
2018-May-21 15:01N 20°36' W 087°04'3 6.7
2018-May-21 14:30N 20°37' W 087°01'611.1
2018-May-21 14:00N 20°40' W 086°56'  
2018-May-18 07:45N 27°51' W 097°31'0 0.0
2018-May-18 07:00N 27°51' W 097°31'0 0.0
2018-May-18 06:18N 27°51' W 097°31'0 0.0
2018-May-18 06:00N 27°51' W 097°31'0 0.0
2018-May-18 05:27N 27°51' W 097°31'0 0.0
2018-May-18 05:00N 27°51' W 097°31'0 0.0
2018-May-18 04:30N 27°51' W 097°31'0 0.0
2018-May-18 03:00N 27°51' W 097°31'0 0.0
2018-May-18 02:30N 27°51' W 097°31'0 0.0
2018-May-18 02:00N 27°51' W 097°31'0 0.0
2018-May-18 01:30N 27°51' W 097°31'0 0.0
2018-May-18 00:57N 27°51' W 097°31'0 0.0
2018-May-18 00:30N 27°51' W 097°31'23511.1
2018-May-17 03:21N 25°58' W 093°40'1112.4
2018-May-17 02:26N 25°52' W 093°29'512.1
2018-May-17 02:00N 25°49' W 093°24'712.2
2018-May-17 01:25N 25°45' W 093°18'512.1
2018-May-17 01:00N 25°42' W 093°14'612.0
2018-May-17 00:30N 25°39' W 093°08'812.1
2018-May-16 23:49N 25°34' W 093°01'512.1
2018-May-16 23:26N 25°31' W 092°57'612.3
2018-May-16 22:56N 25°27' W 092°51'912.6
2018-May-16 22:10N 25°22' W 092°43'42611.3
2018-May-15 08:26N 20°38' W 086°58'613.3
2018-May-15 08:00N 20°35' W 087°03'  

Dump ship's entire track history